Who's Online

We have 11 guests online

Aviation WX

[source: ADDS]
METAR
KIAD 071952Z 28006KT 10SM SCT170 10/M02 A3005 RMK AO2 SLP175 T01001017 =
TAF
KIAD 071720Z 0718/0824 30010G18KT P6SM FEW040 BKN200 FM072200 32005KT P6SM FEW200 FM080900 00000KT P6SM BKN030 FM081600 28006KT P6SM BKN030 FM081800 28009KT P6SM SCT130 =
SR / SS: 01:55 / 11:32 UTC (Washington-Dulles 2016-12-07)

JoomlaWatch Agent

Home Products and Services

This section describes Multilink Systems products and services

 

 

Under construction Please Standby